sensor_id;sensor_type;location;lat;lon;timestamp;temperature;humidity
12164;DHT22;6145;50.192;10.064;2022-08-03T00:00:52;20.60;47.40
12164;DHT22;6145;50.192;10.064;2022-08-03T00:03:19;20.60;47.50
12164;DHT22;6145;50.192;10.064;2022-08-03T00:05:46;20.60;47.60
12164;DHT22;6145;50.192;10.064;2022-08-03T00:08:14;20.50;47.70
12164;DHT22;6145;50.192;10.064;2022-08-03T00:10:41;20.50;47.80
12164;DHT22;6145;50.192;10.064;2022-08-03T00:13:08;20.50;47.90
12164;DHT22;6145;50.192;10.064;2022-08-03T00:15:37;20.40;47.90
12164;DHT22;6145;50.192;10.064;2022-08-03T00:18:05;20.40;48.00
12164;DHT22;6145;50.192;10.064;2022-08-03T00:20:31;20.30;48.00
12164;DHT22;6145;50.192;10.064;2022-08-03T00:22:58;20.40;48.20
12164;DHT22;6145;50.192;10.064;2022-08-03T00:25:27;20.10;48.00
12164;DHT22;6145;50.192;10.064;2022-08-03T00:27:53;20.20;48.20
12164;DHT22;6145;50.192;10.064;2022-08-03T00:30:20;20.20;48.30
12164;DHT22;6145;50.192;10.064;2022-08-03T00:32:47;20.10;48.30
12164;DHT22;6145;50.192;10.064;2022-08-03T00:35:14;20.10;48.50
12164;DHT22;6145;50.192;10.064;2022-08-03T00:37:41;20.20;48.60
12164;DHT22;6145;50.192;10.064;2022-08-03T00:40:10;20.20;48.80
12164;DHT22;6145;50.192;10.064;2022-08-03T00:42:47;20.00;48.70
12164;DHT22;6145;50.192;10.064;2022-08-03T00:45:15;20.00;48.80
12164;DHT22;6145;50.192;10.064;2022-08-03T00:47:43;20.00;48.90
12164;DHT22;6145;50.192;10.064;2022-08-03T00:50:10;19.80;48.80
12164;DHT22;6145;50.192;10.064;2022-08-03T00:52:37;19.80;48.90
12164;DHT22;6145;50.192;10.064;2022-08-03T00:55:04;19.80;49.00
12164;DHT22;6145;50.192;10.064;2022-08-03T00:57:32;19.80;49.20
12164;DHT22;6145;50.192;10.064;2022-08-03T01:00:00;19.80;49.30
12164;DHT22;6145;50.192;10.064;2022-08-03T01:02:27;19.70;49.30
12164;DHT22;6145;50.192;10.064;2022-08-03T01:04:54;19.50;49.20
12164;DHT22;6145;50.192;10.064;2022-08-03T01:07:29;19.60;49.40
12164;DHT22;6145;50.192;10.064;2022-08-03T01:10:01;19.70;49.70
12164;DHT22;6145;50.192;10.064;2022-08-03T01:12:35;19.70;49.80
12164;DHT22;6145;50.192;10.064;2022-08-03T01:15:09;19.50;49.70
12164;DHT22;6145;50.192;10.064;2022-08-03T01:17:43;19.50;49.80
12164;DHT22;6145;50.192;10.064;2022-08-03T01:20:13;19.40;49.80
12164;DHT22;6145;50.192;10.064;2022-08-03T01:22:53;19.40;49.90
12164;DHT22;6145;50.192;10.064;2022-08-03T01:25:31;19.40;50.00
12164;DHT22;6145;50.192;10.064;2022-08-03T01:28:12;19.40;50.70
12164;DHT22;6145;50.192;10.064;2022-08-03T01:30:45;19.30;50.10
12164;DHT22;6145;50.192;10.064;2022-08-03T01:33:18;19.20;50.10
12164;DHT22;6145;50.192;10.064;2022-08-03T01:35:49;19.20;50.20
12164;DHT22;6145;50.192;10.064;2022-08-03T01:38:21;19.20;50.30
12164;DHT22;6145;50.192;10.064;2022-08-03T01:40:50;19.10;50.30
12164;DHT22;6145;50.192;10.064;2022-08-03T01:43:20;19.10;50.40
12164;DHT22;6145;50.192;10.064;2022-08-03T01:45:51;19.10;50.50
12164;DHT22;6145;50.192;10.064;2022-08-03T01:48:20;19.00;50.50
12164;DHT22;6145;50.192;10.064;2022-08-03T01:50:48;19.10;50.70
12164;DHT22;6145;50.192;10.064;2022-08-03T01:53:16;18.80;50.60
12164;DHT22;6145;50.192;10.064;2022-08-03T01:55:44;19.00;50.90
12164;DHT22;6145;50.192;10.064;2022-08-03T01:58:13;18.90;50.90
12164;DHT22;6145;50.192;10.064;2022-08-03T02:00:40;18.90;50.90
12164;DHT22;6145;50.192;10.064;2022-08-03T02:03:11;18.90;51.00
12164;DHT22;6145;50.192;10.064;2022-08-03T02:05:39;18.80;51.00
12164;DHT22;6145;50.192;10.064;2022-08-03T02:08:07;18.80;51.10
12164;DHT22;6145;50.192;10.064;2022-08-03T02:10:36;18.80;51.20
12164;DHT22;6145;50.192;10.064;2022-08-03T02:13:06;18.70;51.10
12164;DHT22;6145;50.192;10.064;2022-08-03T02:15:35;18.70;51.20
12164;DHT22;6145;50.192;10.064;2022-08-03T02:18:05;18.70;51.30
12164;DHT22;6145;50.192;10.064;2022-08-03T02:20:36;18.70;51.40
12164;DHT22;6145;50.192;10.064;2022-08-03T02:23:04;18.60;51.40
12164;DHT22;6145;50.192;10.064;2022-08-03T02:25:33;18.60;51.50
12164;DHT22;6145;50.192;10.064;2022-08-03T02:28:05;18.60;51.60
12164;DHT22;6145;50.192;10.064;2022-08-03T02:30:35;18.50;51.60
12164;DHT22;6145;50.192;10.064;2022-08-03T02:33:04;18.50;51.70
12164;DHT22;6145;50.192;10.064;2022-08-03T02:35:35;18.50;51.70
12164;DHT22;6145;50.192;10.064;2022-08-03T02:38:05;18.40;51.70
12164;DHT22;6145;50.192;10.064;2022-08-03T02:40:33;18.40;51.80
12164;DHT22;6145;50.192;10.064;2022-08-03T02:43:04;18.40;51.90
12164;DHT22;6145;50.192;10.064;2022-08-03T02:45:35;18.40;52.00
12164;DHT22;6145;50.192;10.064;2022-08-03T02:48:04;18.40;52.10
12164;DHT22;6145;50.192;10.064;2022-08-03T02:50:34;18.30;52.10
12164;DHT22;6145;50.192;10.064;2022-08-03T02:53:02;18.30;52.10
12164;DHT22;6145;50.192;10.064;2022-08-03T02:55:31;18.20;52.10
12164;DHT22;6145;50.192;10.064;2022-08-03T02:58:02;18.20;52.20
12164;DHT22;6145;50.192;10.064;2022-08-03T03:00:30;18.20;52.30
12164;DHT22;6145;50.192;10.064;2022-08-03T03:02:58;18.10;52.20
12164;DHT22;6145;50.192;10.064;2022-08-03T03:05:25;18.10;52.40
12164;DHT22;6145;50.192;10.064;2022-08-03T03:07:54;18.10;52.50
12164;DHT22;6145;50.192;10.064;2022-08-03T03:10:22;18.00;52.50
12164;DHT22;6145;50.192;10.064;2022-08-03T03:12:52;18.00;52.60
12164;DHT22;6145;50.192;10.064;2022-08-03T03:15:21;18.00;52.70
12164;DHT22;6145;50.192;10.064;2022-08-03T03:17:48;17.90;52.60
12164;DHT22;6145;50.192;10.064;2022-08-03T03:20:17;17.90;52.80
12164;DHT22;6145;50.192;10.064;2022-08-03T03:22:46;17.90;52.90
12164;DHT22;6145;50.192;10.064;2022-08-03T03:25:16;17.80;52.90
12164;DHT22;6145;50.192;10.064;2022-08-03T03:27:43;17.80;53.00
12164;DHT22;6145;50.192;10.064;2022-08-03T03:30:11;17.80;53.10
12164;DHT22;6145;50.192;10.064;2022-08-03T03:32:38;17.80;53.10
12164;DHT22;6145;50.192;10.064;2022-08-03T03:35:06;17.90;53.30
12164;DHT22;6145;50.192;10.064;2022-08-03T03:37:34;17.70;53.20
12164;DHT22;6145;50.192;10.064;2022-08-03T03:40:01;17.70;53.30
12164;DHT22;6145;50.192;10.064;2022-08-03T03:42:30;17.70;53.30
12164;DHT22;6145;50.192;10.064;2022-08-03T03:44:57;17.60;53.30
12164;DHT22;6145;50.192;10.064;2022-08-03T03:47:24;17.60;53.40
12164;DHT22;6145;50.192;10.064;2022-08-03T03:49:51;17.60;53.50
12164;DHT22;6145;50.192;10.064;2022-08-03T03:52:18;17.60;53.50
12164;DHT22;6145;50.192;10.064;2022-08-03T03:54:45;17.60;53.60
12164;DHT22;6145;50.192;10.064;2022-08-03T03:57:11;17.50;53.50
12164;DHT22;6145;50.192;10.064;2022-08-03T03:59:43;17.50;53.60
12164;DHT22;6145;50.192;10.064;2022-08-03T04:02:10;17.50;53.70
12164;DHT22;6145;50.192;10.064;2022-08-03T04:04:38;17.50;53.80
12164;DHT22;6145;50.192;10.064;2022-08-03T04:07:22;17.50;53.90
12164;DHT22;6145;50.192;10.064;2022-08-03T04:10:16;17.40;53.90
12164;DHT22;6145;50.192;10.064;2022-08-03T04:13:04;17.40;54.00
12164;DHT22;6145;50.192;10.064;2022-08-03T04:15:34;17.40;54.10
12164;DHT22;6145;50.192;10.064;2022-08-03T04:18:02;17.40;54.10
12164;DHT22;6145;50.192;10.064;2022-08-03T04:20:31;17.40;54.40
12164;DHT22;6145;50.192;10.064;2022-08-03T04:22:59;17.30;54.20
12164;DHT22;6145;50.192;10.064;2022-08-03T04:25:30;17.30;54.20
12164;DHT22;6145;50.192;10.064;2022-08-03T04:27:58;17.30;54.20
12164;DHT22;6145;50.192;10.064;2022-08-03T04:30:26;17.30;54.30
12164;DHT22;6145;50.192;10.064;2022-08-03T04:32:55;17.30;54.40
12164;DHT22;6145;50.192;10.064;2022-08-03T04:35:23;17.30;54.40
12164;DHT22;6145;50.192;10.064;2022-08-03T04:37:52;17.30;54.50
12164;DHT22;6145;50.192;10.064;2022-08-03T04:40:27;17.30;54.60
12164;DHT22;6145;50.192;10.064;2022-08-03T04:42:55;17.40;54.80
12164;DHT22;6145;50.192;10.064;2022-08-03T04:45:23;17.20;54.80
12164;DHT22;6145;50.192;10.064;2022-08-03T04:47:51;17.20;55.00
12164;DHT22;6145;50.192;10.064;2022-08-03T04:50:20;17.10;55.00
12164;DHT22;6145;50.192;10.064;2022-08-03T04:52:47;17.20;55.20
12164;DHT22;6145;50.192;10.064;2022-08-03T04:55:24;17.20;55.30
12164;DHT22;6145;50.192;10.064;2022-08-03T04:57:51;17.20;55.30
12164;DHT22;6145;50.192;10.064;2022-08-03T05:00:18;17.20;55.30
12164;DHT22;6145;50.192;10.064;2022-08-03T05:02:45;17.20;55.30
12164;DHT22;6145;50.192;10.064;2022-08-03T05:05:12;17.20;55.30
12164;DHT22;6145;50.192;10.064;2022-08-03T05:07:41;17.20;55.30
12164;DHT22;6145;50.192;10.064;2022-08-03T05:10:10;17.20;55.30
12164;DHT22;6145;50.192;10.064;2022-08-03T05:12:37;17.20;55.30
12164;DHT22;6145;50.192;10.064;2022-08-03T05:15:06;17.20;55.30
12164;DHT22;6145;50.192;10.064;2022-08-03T05:17:33;17.20;55.30
12164;DHT22;6145;50.192;10.064;2022-08-03T05:20:00;17.30;55.30
12164;DHT22;6145;50.192;10.064;2022-08-03T05:22:28;17.30;55.30
12164;DHT22;6145;50.192;10.064;2022-08-03T05:24:56;17.30;55.30
12164;DHT22;6145;50.192;10.064;2022-08-03T05:27:23;17.30;55.30
12164;DHT22;6145;50.192;10.064;2022-08-03T05:29:50;17.30;55.30
12164;DHT22;6145;50.192;10.064;2022-08-03T05:32:17;17.20;55.30
12164;DHT22;6145;50.192;10.064;2022-08-03T05:34:44;17.30;55.30
12164;DHT22;6145;50.192;10.064;2022-08-03T05:37:11;17.30;55.40
12164;DHT22;6145;50.192;10.064;2022-08-03T05:39:38;17.30;55.40
12164;DHT22;6145;50.192;10.064;2022-08-03T05:42:06;17.30;55.40
12164;DHT22;6145;50.192;10.064;2022-08-03T05:44:33;17.30;55.50
12164;DHT22;6145;50.192;10.064;2022-08-03T05:47:03;17.40;55.50
12164;DHT22;6145;50.192;10.064;2022-08-03T05:49:29;17.40;55.80
12164;DHT22;6145;50.192;10.064;2022-08-03T05:51:56;17.50;57.70
12164;DHT22;6145;50.192;10.064;2022-08-03T05:54:23;17.70;58.80
12164;DHT22;6145;50.192;10.064;2022-08-03T05:56:50;18.10;59.50
12164;DHT22;6145;50.192;10.064;2022-08-03T05:59:18;18.40;59.10
12164;DHT22;6145;50.192;10.064;2022-08-03T06:01:46;18.90;58.90
12164;DHT22;6145;50.192;10.064;2022-08-03T06:04:13;19.30;58.20
12164;DHT22;6145;50.192;10.064;2022-08-03T06:06:39;19.80;57.20
12164;DHT22;6145;50.192;10.064;2022-08-03T06:09:06;20.30;56.50
12164;DHT22;6145;50.192;10.064;2022-08-03T06:11:35;20.80;55.80
12164;DHT22;6145;50.192;10.064;2022-08-03T06:14:02;21.40;54.50
12164;DHT22;6145;50.192;10.064;2022-08-03T06:16:30;21.90;53.60
12164;DHT22;6145;50.192;10.064;2022-08-03T06:18:58;22.30;53.20
12164;DHT22;6145;50.192;10.064;2022-08-03T06:21:24;22.80;52.70
12164;DHT22;6145;50.192;10.064;2022-08-03T06:23:51;23.30;52.00
12164;DHT22;6145;50.192;10.064;2022-08-03T06:26:18;23.70;51.10
12164;DHT22;6145;50.192;10.064;2022-08-03T06:28:45;24.20;50.30
12164;DHT22;6145;50.192;10.064;2022-08-03T06:31:12;24.70;49.60
12164;DHT22;6145;50.192;10.064;2022-08-03T06:33:40;25.10;48.70
12164;DHT22;6145;50.192;10.064;2022-08-03T06:36:07;25.40;47.60
12164;DHT22;6145;50.192;10.064;2022-08-03T06:38:33;25.70;46.90
12164;DHT22;6145;50.192;10.064;2022-08-03T06:41:00;26.00;46.20
12164;DHT22;6145;50.192;10.064;2022-08-03T06:43:27;26.40;45.60
12164;DHT22;6145;50.192;10.064;2022-08-03T06:45:54;26.70;45.10
12164;DHT22;6145;50.192;10.064;2022-08-03T06:48:20;27.10;44.60
12164;DHT22;6145;50.192;10.064;2022-08-03T06:50:49;27.40;43.80
12164;DHT22;6145;50.192;10.064;2022-08-03T06:53:15;27.70;42.90
12164;DHT22;6145;50.192;10.064;2022-08-03T06:55:42;27.90;42.30
12164;DHT22;6145;50.192;10.064;2022-08-03T06:58:09;28.10;42.20
12164;DHT22;6145;50.192;10.064;2022-08-03T07:00:36;28.40;41.60
12164;DHT22;6145;50.192;10.064;2022-08-03T07:03:03;28.80;41.40
12164;DHT22;6145;50.192;10.064;2022-08-03T07:05:30;29.10;40.90
12164;DHT22;6145;50.192;10.064;2022-08-03T07:07:59;29.50;40.00
12164;DHT22;6145;50.192;10.064;2022-08-03T07:10:28;29.80;38.70
12164;DHT22;6145;50.192;10.064;2022-08-03T07:12:54;30.00;39.00
12164;DHT22;6145;50.192;10.064;2022-08-03T07:15:21;30.20;38.80
12164;DHT22;6145;50.192;10.064;2022-08-03T07:17:48;30.50;38.40
12164;DHT22;6145;50.192;10.064;2022-08-03T07:20:21;30.80;37.90
12164;DHT22;6145;50.192;10.064;2022-08-03T07:22:48;31.20;37.40
12164;DHT22;6145;50.192;10.064;2022-08-03T07:25:16;31.40;37.20
12164;DHT22;6145;50.192;10.064;2022-08-03T07:27:44;31.60;36.50
12164;DHT22;6145;50.192;10.064;2022-08-03T07:30:12;31.80;36.20
12164;DHT22;6145;50.192;10.064;2022-08-03T07:32:39;32.10;36.00
12164;DHT22;6145;50.192;10.064;2022-08-03T07:35:08;32.40;35.50
12164;DHT22;6145;50.192;10.064;2022-08-03T07:37:35;32.70;35.20
12164;DHT22;6145;50.192;10.064;2022-08-03T07:40:03;33.10;34.90
12164;DHT22;6145;50.192;10.064;2022-08-03T07:42:31;33.30;34.20
12164;DHT22;6145;50.192;10.064;2022-08-03T07:44:58;33.50;33.60
12164;DHT22;6145;50.192;10.064;2022-08-03T07:47:27;33.70;33.50
12164;DHT22;6145;50.192;10.064;2022-08-03T07:49:54;34.00;33.50
12164;DHT22;6145;50.192;10.064;2022-08-03T07:52:21;34.20;33.30
12164;DHT22;6145;50.192;10.064;2022-08-03T07:55:06;34.50;32.80
12164;DHT22;6145;50.192;10.064;2022-08-03T07:57:34;34.70;32.50
12164;DHT22;6145;50.192;10.064;2022-08-03T08:00:02;34.90;31.90
12164;DHT22;6145;50.192;10.064;2022-08-03T08:02:29;35.10;31.40
12164;DHT22;6145;50.192;10.064;2022-08-03T08:04:56;35.20;30.80
12164;DHT22;6145;50.192;10.064;2022-08-03T08:07:23;35.40;30.60
12164;DHT22;6145;50.192;10.064;2022-08-03T08:09:50;35.50;30.40
12164;DHT22;6145;50.192;10.064;2022-08-03T08:12:17;35.70;30.30
12164;DHT22;6145;50.192;10.064;2022-08-03T08:14:45;35.80;30.10
12164;DHT22;6145;50.192;10.064;2022-08-03T08:17:11;35.80;30.00
12164;DHT22;6145;50.192;10.064;2022-08-03T08:19:38;35.90;30.00
12164;DHT22;6145;50.192;10.064;2022-08-03T08:22:05;36.00;30.00
12164;DHT22;6145;50.192;10.064;2022-08-03T08:24:32;36.00;29.90
12164;DHT22;6145;50.192;10.064;2022-08-03T08:26:59;36.10;29.70
12164;DHT22;6145;50.192;10.064;2022-08-03T08:29:26;36.30;29.70
12164;DHT22;6145;50.192;10.064;2022-08-03T08:31:54;36.40;29.70
12164;DHT22;6145;50.192;10.064;2022-08-03T08:34:21;36.50;29.90
12164;DHT22;6145;50.192;10.064;2022-08-03T08:36:48;36.60;29.50
12164;DHT22;6145;50.192;10.064;2022-08-03T08:39:14;36.70;29.60
12164;DHT22;6145;50.192;10.064;2022-08-03T08:41:41;36.90;29.70
12164;DHT22;6145;50.192;10.064;2022-08-03T08:44:08;37.00;29.50
12164;DHT22;6145;50.192;10.064;2022-08-03T08:46:35;37.10;29.30
12164;DHT22;6145;50.192;10.064;2022-08-03T08:49:06;37.30;29.30
12164;DHT22;6145;50.192;10.064;2022-08-03T08:51:35;37.40;29.10
12164;DHT22;6145;50.192;10.064;2022-08-03T08:54:06;37.40;28.20
12164;DHT22;6145;50.192;10.064;2022-08-03T08:56:35;37.40;27.70
12164;DHT22;6145;50.192;10.064;2022-08-03T08:59:03;37.30;27.50
12164;DHT22;6145;50.192;10.064;2022-08-03T09:01:30;37.10;27.20
12164;DHT22;6145;50.192;10.064;2022-08-03T09:04:00;37.10;27.50
12164;DHT22;6145;50.192;10.064;2022-08-03T09:06:29;37.40;27.60
12164;DHT22;6145;50.192;10.064;2022-08-03T09:08:57;37.40;26.80
12164;DHT22;6145;50.192;10.064;2022-08-03T09:11:24;37.60;27.20
12164;DHT22;6145;50.192;10.064;2022-08-03T09:13:50;37.80;27.30
12164;DHT22;6145;50.192;10.064;2022-08-03T09:16:19;37.70;26.00
12164;DHT22;6145;50.192;10.064;2022-08-03T09:18:47;37.70;26.30
12164;DHT22;6145;50.192;10.064;2022-08-03T09:21:17;37.70;26.80
12164;DHT22;6145;50.192;10.064;2022-08-03T09:23:48;37.90;27.00
12164;DHT22;6145;50.192;10.064;2022-08-03T09:26:22;38.00;27.00
12164;DHT22;6145;50.192;10.064;2022-08-03T09:28:56;38.10;25.70
12164;DHT22;6145;50.192;10.064;2022-08-03T09:31:30;38.10;26.30
12164;DHT22;6145;50.192;10.064;2022-08-03T09:33:57;38.10;25.70
12164;DHT22;6145;50.192;10.064;2022-08-03T09:36:40;38.10;26.10
12164;DHT22;6145;50.192;10.064;2022-08-03T09:39:10;38.20;26.60
12164;DHT22;6145;50.192;10.064;2022-08-03T09:41:38;38.50;27.00
12164;DHT22;6145;50.192;10.064;2022-08-03T09:44:05;38.70;26.90
12164;DHT22;6145;50.192;10.064;2022-08-03T09:46:47;38.80;26.70
12164;DHT22;6145;50.192;10.064;2022-08-03T09:49:14;39.20;26.90
12164;DHT22;6145;50.192;10.064;2022-08-03T09:51:41;39.30;26.70
12164;DHT22;6145;50.192;10.064;2022-08-03T09:54:09;39.50;26.30
12164;DHT22;6145;50.192;10.064;2022-08-03T09:56:40;39.50;25.60
12164;DHT22;6145;50.192;10.064;2022-08-03T09:59:08;39.50;24.90
12164;DHT22;6145;50.192;10.064;2022-08-03T10:01:36;39.50;24.50
12164;DHT22;6145;50.192;10.064;2022-08-03T10:04:04;39.30;24.40
12164;DHT22;6145;50.192;10.064;2022-08-03T10:06:30;39.40;24.60
12164;DHT22;6145;50.192;10.064;2022-08-03T10:09:05;39.50;24.80
12164;DHT22;6145;50.192;10.064;2022-08-03T10:11:34;39.60;24.50
12164;DHT22;6145;50.192;10.064;2022-08-03T10:14:03;39.60;24.50
12164;DHT22;6145;50.192;10.064;2022-08-03T10:16:33;39.40;23.40
12164;DHT22;6145;50.192;10.064;2022-08-03T10:19:01;39.20;24.00
12164;DHT22;6145;50.192;10.064;2022-08-03T10:21:32;39.30;24.30
12164;DHT22;6145;50.192;10.064;2022-08-03T10:24:02;39.20;24.30
12164;DHT22;6145;50.192;10.064;2022-08-03T10:26:31;39.40;24.50
12164;DHT22;6145;50.192;10.064;2022-08-03T10:29:02;39.30;23.70
12164;DHT22;6145;50.192;10.064;2022-08-03T10:31:34;39.50;24.10
12164;DHT22;6145;50.192;10.064;2022-08-03T10:34:06;39.40;23.60
12164;DHT22;6145;50.192;10.064;2022-08-03T10:36:36;39.50;23.60
12164;DHT22;6145;50.192;10.064;2022-08-03T10:39:03;39.40;23.40
12164;DHT22;6145;50.192;10.064;2022-08-03T10:41:40;39.30;23.70
12164;DHT22;6145;50.192;10.064;2022-08-03T10:44:16;39.40;24.00
12164;DHT22;6145;50.192;10.064;2022-08-03T10:46:45;39.40;23.50
12164;DHT22;6145;50.192;10.064;2022-08-03T10:49:14;39.40;23.70
12164;DHT22;6145;50.192;10.064;2022-08-03T10:51:42;39.50;23.70
12164;DHT22;6145;50.192;10.064;2022-08-03T10:57:46;39.70;23.50
12164;DHT22;6145;50.192;10.064;2022-08-03T11:00:16;39.70;23.50
12164;DHT22;6145;50.192;10.064;2022-08-03T11:03:06;39.60;23.00
12164;DHT22;6145;50.192;10.064;2022-08-03T11:05:36;39.30;23.00
12164;DHT22;6145;50.192;10.064;2022-08-03T11:08:25;39.10;23.00
12164;DHT22;6145;50.192;10.064;2022-08-03T11:10:54;39.00;23.80
12164;DHT22;6145;50.192;10.064;2022-08-03T11:13:22;39.10;24.00
12164;DHT22;6145;50.192;10.064;2022-08-03T11:15:53;39.30;24.10
12164;DHT22;6145;50.192;10.064;2022-08-03T11:18:20;39.40;23.90
12164;DHT22;6145;50.192;10.064;2022-08-03T11:20:49;39.60;23.60
12164;DHT22;6145;50.192;10.064;2022-08-03T11:23:20;39.80;23.70
12164;DHT22;6145;50.192;10.064;2022-08-03T11:26:13;40.00;23.80
12164;DHT22;6145;50.192;10.064;2022-08-03T11:28:40;40.10;23.70
12164;DHT22;6145;50.192;10.064;2022-08-03T11:31:46;40.20;23.40
12164;DHT22;6145;50.192;10.064;2022-08-03T11:34:15;40.40;23.30
12164;DHT22;6145;50.192;10.064;2022-08-03T11:37:20;40.40;23.40
12164;DHT22;6145;50.192;10.064;2022-08-03T11:39:50;40.60;23.10
12164;DHT22;6145;50.192;10.064;2022-08-03T11:42:38;40.70;22.50
12164;DHT22;6145;50.192;10.064;2022-08-03T11:45:07;40.70;22.60
12164;DHT22;6145;50.192;10.064;2022-08-03T11:47:37;40.70;22.60
12164;DHT22;6145;50.192;10.064;2022-08-03T11:50:06;40.60;22.00
12164;DHT22;6145;50.192;10.064;2022-08-03T11:52:35;40.40;22.10
12164;DHT22;6145;50.192;10.064;2022-08-03T11:55:14;40.30;22.40
12164;DHT22;6145;50.192;10.064;2022-08-03T11:57:43;40.20;22.10
12164;DHT22;6145;50.192;10.064;2022-08-03T12:00:22;40.10;22.00
12164;DHT22;6145;50.192;10.064;2022-08-03T12:03:00;39.90;22.30
12164;DHT22;6145;50.192;10.064;2022-08-03T12:05:45;39.80;22.30
12164;DHT22;6145;50.192;10.064;2022-08-03T12:08:16;39.80;22.60
12164;DHT22;6145;50.192;10.064;2022-08-03T12:10:50;39.80;22.30
12164;DHT22;6145;50.192;10.064;2022-08-03T12:13:18;39.70;22.20
12164;DHT22;6145;50.192;10.064;2022-08-03T12:15:50;39.60;22.50
12164;DHT22;6145;50.192;10.064;2022-08-03T12:18:19;39.60;22.60
12164;DHT22;6145;50.192;10.064;2022-08-03T12:20:48;39.70;22.80
12164;DHT22;6145;50.192;10.064;2022-08-03T12:23:16;39.80;22.70
12164;DHT22;6145;50.192;10.064;2022-08-03T12:25:44;40.00;22.90
12164;DHT22;6145;50.192;10.064;2022-08-03T12:28:14;40.10;22.50
12164;DHT22;6145;50.192;10.064;2022-08-03T12:30:45;40.20;22.10
12164;DHT22;6145;50.192;10.064;2022-08-03T12:33:22;40.20;21.40
12164;DHT22;6145;50.192;10.064;2022-08-03T12:36:00;40.00;21.60
12164;DHT22;6145;50.192;10.064;2022-08-03T12:38:29;40.10;22.00
12164;DHT22;6145;50.192;10.064;2022-08-03T12:41:00;40.30;22.20
12164;DHT22;6145;50.192;10.064;2022-08-03T12:43:27;40.40;22.10
12164;DHT22;6145;50.192;10.064;2022-08-03T12:46:10;40.60;22.10
12164;DHT22;6145;50.192;10.064;2022-08-03T12:49:01;40.70;21.90
12164;DHT22;6145;50.192;10.064;2022-08-03T12:51:29;40.80;22.00
12164;DHT22;6145;50.192;10.064;2022-08-03T12:53:57;40.90;21.90
12164;DHT22;6145;50.192;10.064;2022-08-03T12:56:25;41.00;21.90
12164;DHT22;6145;50.192;10.064;2022-08-03T12:58:51;41.10;22.00
12164;DHT22;6145;50.192;10.064;2022-08-03T13:01:19;41.20;21.90
12164;DHT22;6145;50.192;10.064;2022-08-03T13:03:50;41.20;21.80
12164;DHT22;6145;50.192;10.064;2022-08-03T13:06:20;41.20;21.60
12164;DHT22;6145;50.192;10.064;2022-08-03T13:08:47;41.30;21.70
12164;DHT22;6145;50.192;10.064;2022-08-03T13:11:20;41.20;21.60
12164;DHT22;6145;50.192;10.064;2022-08-03T13:13:47;41.40;21.70
12164;DHT22;6145;50.192;10.064;2022-08-03T13:16:14;41.40;21.70
12164;DHT22;6145;50.192;10.064;2022-08-03T13:18:41;41.50;21.80
12164;DHT22;6145;50.192;10.064;2022-08-03T13:21:07;41.60;21.70
12164;DHT22;6145;50.192;10.064;2022-08-03T13:23:35;41.60;21.70
12164;DHT22;6145;50.192;10.064;2022-08-03T13:26:02;41.70;21.60
12164;DHT22;6145;50.192;10.064;2022-08-03T13:28:29;41.70;21.40
12164;DHT22;6145;50.192;10.064;2022-08-03T13:30:56;41.80;21.30
12164;DHT22;6145;50.192;10.064;2022-08-03T13:33:22;41.80;21.00
12164;DHT22;6145;50.192;10.064;2022-08-03T13:35:49;41.80;21.10
12164;DHT22;6145;50.192;10.064;2022-08-03T13:38:16;41.80;21.00
12164;DHT22;6145;50.192;10.064;2022-08-03T13:40:44;41.80;21.20
12164;DHT22;6145;50.192;10.064;2022-08-03T13:43:11;41.80;21.40
12164;DHT22;6145;50.192;10.064;2022-08-03T13:45:37;41.90;21.40
12164;DHT22;6145;50.192;10.064;2022-08-03T13:48:05;41.90;21.30
12164;DHT22;6145;50.192;10.064;2022-08-03T13:50:32;41.80;21.20
12164;DHT22;6145;50.192;10.064;2022-08-03T13:52:59;41.90;21.40
12164;DHT22;6145;50.192;10.064;2022-08-03T13:55:25;41.90;21.40
12164;DHT22;6145;50.192;10.064;2022-08-03T13:57:53;41.90;21.40
12164;DHT22;6145;50.192;10.064;2022-08-03T14:00:20;42.00;21.50
12164;DHT22;6145;50.192;10.064;2022-08-03T14:02:50;41.90;21.50
12164;DHT22;6145;50.192;10.064;2022-08-03T14:05:29;42.00;21.50
12164;DHT22;6145;50.192;10.064;2022-08-03T14:08:29;42.00;21.60
12164;DHT22;6145;50.192;10.064;2022-08-03T14:11:04;42.00;21.60
12164;DHT22;6145;50.192;10.064;2022-08-03T14:13:51;42.00;21.60
12164;DHT22;6145;50.192;10.064;2022-08-03T14:16:18;42.00;21.80
12164;DHT22;6145;50.192;10.064;2022-08-03T14:18:45;41.90;21.80
12164;DHT22;6145;50.192;10.064;2022-08-03T14:21:12;42.00;22.10
12164;DHT22;6145;50.192;10.064;2022-08-03T14:23:39;41.90;22.10
12164;DHT22;6145;50.192;10.064;2022-08-03T14:26:07;42.00;22.00
12164;DHT22;6145;50.192;10.064;2022-08-03T14:28:34;42.00;22.00
12164;DHT22;6145;50.192;10.064;2022-08-03T14:31:03;42.00;21.90
12164;DHT22;6145;50.192;10.064;2022-08-03T14:33:30;42.00;21.80
12164;DHT22;6145;50.192;10.064;2022-08-03T14:35:56;41.80;21.50
12164;DHT22;6145;50.192;10.064;2022-08-03T14:38:23;41.70;21.20
12164;DHT22;6145;50.192;10.064;2022-08-03T14:40:50;41.40;21.20
12164;DHT22;6145;50.192;10.064;2022-08-03T14:43:17;41.30;21.40
12164;DHT22;6145;50.192;10.064;2022-08-03T14:45:45;40.90;21.20
12164;DHT22;6145;50.192;10.064;2022-08-03T14:48:13;40.60;21.50
12164;DHT22;6145;50.192;10.064;2022-08-03T14:50:40;40.30;21.60
12164;DHT22;6145;50.192;10.064;2022-08-03T14:53:07;40.10;22.40
12164;DHT22;6145;50.192;10.064;2022-08-03T14:55:34;40.10;22.80
12164;DHT22;6145;50.192;10.064;2022-08-03T14:58:00;40.30;23.10
12164;DHT22;6145;50.192;10.064;2022-08-03T15:00:30;40.60;23.20
12164;DHT22;6145;50.192;10.064;2022-08-03T15:02:57;40.60;23.00
12164;DHT22;6145;50.192;10.064;2022-08-03T15:05:25;40.70;22.90
12164;DHT22;6145;50.192;10.064;2022-08-03T15:07:51;40.80;22.60
12164;DHT22;6145;50.192;10.064;2022-08-03T15:10:18;40.90;22.80
12164;DHT22;6145;50.192;10.064;2022-08-03T15:12:45;40.80;22.40
12164;DHT22;6145;50.192;10.064;2022-08-03T15:15:12;40.90;22.50
12164;DHT22;6145;50.192;10.064;2022-08-03T15:17:39;40.90;22.60
12164;DHT22;6145;50.192;10.064;2022-08-03T15:20:06;40.90;22.70
12164;DHT22;6145;50.192;10.064;2022-08-03T15:22:38;41.00;22.90
12164;DHT22;6145;50.192;10.064;2022-08-03T15:25:05;40.90;22.80
12164;DHT22;6145;50.192;10.064;2022-08-03T15:27:32;41.00;22.70
12164;DHT22;6145;50.192;10.064;2022-08-03T15:29:59;41.00;22.50
12164;DHT22;6145;50.192;10.064;2022-08-03T15:32:25;41.00;22.30
12164;DHT22;6145;50.192;10.064;2022-08-03T15:34:52;41.00;22.20
12164;DHT22;6145;50.192;10.064;2022-08-03T15:37:19;40.90;22.20
12164;DHT22;6145;50.192;10.064;2022-08-03T15:39:47;40.90;22.40
12164;DHT22;6145;50.192;10.064;2022-08-03T15:42:14;41.00;22.70
12164;DHT22;6145;50.192;10.064;2022-08-03T15:44:41;41.00;22.70
12164;DHT22;6145;50.192;10.064;2022-08-03T15:47:07;41.10;22.90